createdAt,value
2019-02-22T00:00:42.074Z,50.10
2019-02-22T00:02:47.091Z,50.20
2019-02-22T00:04:52.107Z,50.10
2019-02-22T00:06:57.157Z,50.00
2019-02-22T00:09:02.490Z,50.00
2019-02-22T00:11:09.035Z,50.10
2019-02-22T00:13:14.274Z,50.00
2019-02-22T00:15:19.243Z,50.10
2019-02-22T00:17:24.151Z,50.10
2019-02-22T00:19:29.013Z,50.00
2019-02-22T00:21:34.210Z,49.90
2019-02-22T00:23:39.215Z,50.00
2019-02-22T00:25:44.112Z,50.00
2019-02-22T00:27:50.748Z,50.10
2019-02-22T00:30:07.334Z,50.10
2019-02-22T00:32:12.107Z,49.80
2019-02-22T00:34:16.955Z,49.90
2019-02-22T00:36:22.831Z,49.80
2019-02-22T00:38:27.769Z,49.80
2019-02-22T00:40:32.656Z,49.80
2019-02-22T00:42:37.587Z,49.90
2019-02-22T00:44:43.927Z,49.90
2019-02-22T00:46:49.014Z,49.70
2019-02-22T00:48:54.051Z,49.70
2019-02-22T00:50:59.016Z,49.70
2019-02-22T00:53:04.076Z,49.80
2019-02-22T00:55:08.924Z,49.80
2019-02-22T00:57:13.785Z,49.80
2019-02-22T00:59:18.789Z,49.70
2019-02-22T01:01:23.991Z,49.60
2019-02-22T01:03:30.489Z,49.80
2019-02-22T01:05:35.345Z,49.80
2019-02-22T01:07:41.425Z,49.80
2019-02-22T01:09:46.316Z,49.60
2019-02-22T01:11:51.229Z,49.60
2019-02-22T01:13:56.147Z,49.70
2019-02-22T01:16:01.081Z,49.60
2019-02-22T01:18:06.849Z,49.60
2019-02-22T01:20:11.615Z,49.60
2019-02-22T01:22:17.436Z,49.70
2019-02-22T01:24:22.628Z,49.60
2019-02-22T01:26:28.246Z,49.50
2019-02-22T01:28:33.141Z,49.60
2019-02-22T01:30:38.035Z,49.50
2019-02-22T01:32:42.882Z,49.50
2019-02-22T01:34:47.709Z,49.50
2019-02-22T01:36:52.630Z,49.40
2019-02-22T01:38:57.481Z,49.40
2019-02-22T01:41:02.285Z,49.20
2019-02-22T01:43:07.176Z,49.30
2019-02-22T01:45:12.034Z,49.20
2019-02-22T01:47:16.828Z,49.30
2019-02-22T01:49:21.624Z,49.30
2019-02-22T01:51:26.629Z,49.20
2019-02-22T01:53:31.352Z,49.30
2019-02-22T01:55:36.561Z,49.10
2019-02-22T01:57:41.916Z,49.20
2019-02-22T01:59:47.239Z,49.10
2019-02-22T02:01:52.068Z,49.40
2019-02-22T02:03:57.003Z,49.30
2019-02-22T02:06:02.030Z,49.20
2019-02-22T02:08:06.957Z,49.20
2019-02-22T02:10:11.910Z,49.50
2019-02-22T02:12:17.097Z,49.40
2019-02-22T02:14:21.922Z,49.20
2019-02-22T02:16:26.807Z,49.30
2019-02-22T02:18:31.689Z,49.20
2019-02-22T02:20:36.487Z,49.00
2019-02-22T02:22:41.321Z,49.00
2019-02-22T02:24:46.186Z,49.20
2019-02-22T02:26:50.953Z,49.20
2019-02-22T02:28:55.790Z,49.10
2019-02-22T02:31:00.708Z,48.90
2019-02-22T02:33:05.587Z,49.10
2019-02-22T02:35:10.376Z,48.90
2019-02-22T02:37:15.174Z,48.90
2019-02-22T02:39:19.901Z,48.90
2019-02-22T02:41:24.791Z,49.10
2019-02-22T02:43:29.495Z,49.10
2019-02-22T02:45:34.348Z,48.90
2019-02-22T02:47:40.298Z,49.20
2019-02-22T02:49:45.089Z,49.20
2019-02-22T02:51:50.008Z,48.90
2019-02-22T02:53:54.881Z,49.10
2019-02-22T02:55:59.806Z,49.00
2019-02-22T02:58:04.777Z,49.10
2019-02-22T03:00:10.054Z,48.90
2019-02-22T03:02:20.754Z,48.80
2019-02-22T03:04:25.648Z,49.10
2019-02-22T03:06:35.697Z,49.10
2019-02-22T03:08:40.780Z,48.70
2019-02-22T03:10:45.772Z,49.00
2019-02-22T03:12:50.810Z,48.90
2019-02-22T03:14:55.731Z,49.30
2019-02-22T03:17:00.469Z,48.70
2019-02-22T03:19:05.316Z,48.80
2019-02-22T03:21:10.499Z,48.70
2019-02-22T03:23:16.475Z,48.90
2019-02-22T03:25:21.316Z,49.00
2019-02-22T03:27:26.147Z,49.00
2019-02-22T03:29:30.867Z,48.60
2019-02-22T03:31:35.580Z,49.00
2019-02-22T03:33:40.348Z,48.80
2019-02-22T03:35:45.078Z,48.80
2019-02-22T03:37:49.764Z,48.70
2019-02-22T03:39:54.589Z,48.80
2019-02-22T03:41:59.399Z,48.90
2019-02-22T03:44:04.240Z,48.80
2019-02-22T03:46:09.162Z,48.70
2019-02-22T03:48:13.956Z,48.70
2019-02-22T03:50:18.671Z,48.60
2019-02-22T03:52:43.089Z,49.20
2019-02-22T03:54:47.843Z,48.60
2019-02-22T03:56:52.774Z,48.40
2019-02-22T03:58:57.569Z,48.80
2019-02-22T04:01:02.369Z,48.40
2019-02-22T04:03:07.182Z,48.40
2019-02-22T04:05:12.112Z,48.50
2019-02-22T04:07:17.109Z,48.60
2019-02-22T04:09:21.951Z,48.40
2019-02-22T04:11:26.707Z,48.60
2019-02-22T04:13:31.435Z,48.70
2019-02-22T04:15:37.512Z,48.40
2019-02-22T04:17:42.343Z,48.50
2019-02-22T04:19:47.164Z,48.40
2019-02-22T04:21:51.946Z,48.70
2019-02-22T04:23:56.755Z,48.40
2019-02-22T04:26:01.649Z,48.40
2019-02-22T04:28:06.373Z,48.40
2019-02-22T04:30:11.215Z,48.00
2019-02-22T04:32:16.001Z,48.20
2019-02-22T04:34:20.905Z,48.30
2019-02-22T04:36:25.774Z,48.40
2019-02-22T04:38:30.531Z,48.30
2019-02-22T04:40:35.373Z,48.30
2019-02-22T04:42:40.195Z,48.30
2019-02-22T04:44:45.098Z,48.30
2019-02-22T04:46:49.781Z,48.20
2019-02-22T04:48:54.526Z,48.40
2019-02-22T04:50:59.362Z,48.10
2019-02-22T04:53:04.130Z,48.20
2019-02-22T04:55:08.845Z,48.40
2019-02-22T04:57:13.729Z,48.20
2019-02-22T04:59:18.577Z,48.30
2019-02-22T05:01:24.008Z,47.80
2019-02-22T05:03:29.829Z,48.30
2019-02-22T05:05:35.569Z,48.30
2019-02-22T05:07:40.522Z,48.20
2019-02-22T05:09:45.563Z,47.90
2019-02-22T05:11:50.502Z,48.20
2019-02-22T05:14:02.181Z,48.00
2019-02-22T05:16:07.083Z,48.20
2019-02-22T05:18:11.938Z,48.00
2019-02-22T05:20:16.850Z,48.20
2019-02-22T05:22:23.113Z,47.60
2019-02-22T05:24:27.962Z,48.20
2019-02-22T05:26:32.883Z,48.20
2019-02-22T05:28:37.746Z,48.20
2019-02-22T05:30:42.609Z,48.00
2019-02-22T05:32:47.623Z,48.10
2019-02-22T05:34:52.494Z,47.90
2019-02-22T05:36:57.422Z,47.90
2019-02-22T05:39:02.262Z,47.80
2019-02-22T05:41:07.438Z,47.80
2019-02-22T05:43:12.240Z,47.70
2019-02-22T05:45:16.987Z,47.80
2019-02-22T05:47:21.862Z,48.00
2019-02-22T05:49:27.820Z,47.90
2019-02-22T05:51:32.581Z,47.70
2019-02-22T05:53:37.351Z,47.90
2019-02-22T05:55:44.304Z,47.90
2019-02-22T05:57:48.685Z,47.70
2019-02-22T05:59:55.612Z,47.90
2019-02-22T06:02:00.396Z,47.90
2019-02-22T06:04:05.180Z,47.60
2019-02-22T06:06:09.877Z,47.60
2019-02-22T06:08:14.818Z,47.90
2019-02-22T06:10:20.733Z,47.60
2019-02-22T06:12:34.240Z,47.40
2019-02-22T06:14:32.478Z,47.30
2019-02-22T06:16:44.958Z,47.60
2019-02-22T06:18:50.899Z,47.60
2019-02-22T06:20:55.698Z,47.20
2019-02-22T06:23:00.541Z,47.40
2019-02-22T06:25:06.096Z,47.40
2019-02-22T06:27:10.956Z,47.50
2019-02-22T06:29:15.785Z,47.30
2019-02-22T06:31:20.662Z,47.20
2019-02-22T06:33:25.571Z,48.00
2019-02-22T06:35:30.591Z,47.70
2019-02-22T06:37:35.572Z,47.60
2019-02-22T06:39:40.559Z,47.50
2019-02-22T06:41:45.617Z,47.60
2019-02-22T06:43:51.404Z,47.40
2019-02-22T06:45:56.265Z,47.50
2019-02-22T06:48:01.217Z,47.40
2019-02-22T06:50:06.499Z,47.00
2019-02-22T06:52:11.379Z,47.30
2019-02-22T06:54:16.249Z,47.40
2019-02-22T06:56:20.957Z,47.20
2019-02-22T06:58:25.869Z,46.90
2019-02-22T07:00:30.725Z,47.30
2019-02-22T07:02:35.607Z,46.60
2019-02-22T07:04:40.418Z,47.20
2019-02-22T07:06:47.113Z,47.00
2019-02-22T07:08:51.915Z,47.20
2019-02-22T07:11:15.720Z,46.80
2019-02-22T07:13:20.460Z,47.10
2019-02-22T07:15:25.261Z,46.80
2019-02-22T07:17:29.981Z,46.90
2019-02-22T07:19:34.960Z,47.00
2019-02-22T07:21:52.129Z,46.80
2019-02-22T07:23:47.662Z,46.80
2019-02-22T07:25:52.498Z,46.80
2019-02-22T07:27:57.443Z,46.70
2019-02-22T07:30:02.251Z,46.50
2019-02-22T07:32:07.197Z,46.60
2019-02-22T07:34:12.016Z,46.60
2019-02-22T07:36:16.787Z,46.30
2019-02-22T07:38:21.571Z,46.20
2019-02-22T07:40:26.525Z,46.50
2019-02-22T07:42:31.408Z,46.50
2019-02-22T07:44:36.339Z,46.50
2019-02-22T07:46:41.205Z,46.60
2019-02-22T07:48:46.575Z,46.30
2019-02-22T07:50:57.412Z,46.30
2019-02-22T07:52:57.934Z,46.50
2019-02-22T07:55:02.938Z,46.40
2019-02-22T07:57:08.038Z,46.40
2019-02-22T07:59:12.708Z,46.20
2019-02-22T08:01:17.464Z,46.00
2019-02-22T08:03:22.331Z,46.30
2019-02-22T08:05:28.412Z,46.10
2019-02-22T08:07:33.195Z,45.80
2019-02-22T08:09:38.180Z,46.40
2019-02-22T08:11:43.114Z,46.00
2019-02-22T08:13:48.050Z,45.90
2019-02-22T08:15:52.883Z,46.10
2019-02-22T08:17:57.726Z,45.80
2019-02-22T08:20:02.601Z,45.80
2019-02-22T08:22:07.665Z,45.60
2019-02-22T08:24:12.679Z,45.80
2019-02-22T08:26:17.435Z,45.60
2019-02-22T08:28:22.439Z,45.90
2019-02-22T08:30:28.367Z,45.90
2019-02-22T08:32:33.319Z,45.90
2019-02-22T08:34:38.118Z,45.80
2019-02-22T08:36:43.264Z,45.90
2019-02-22T08:38:48.135Z,45.80
2019-02-22T08:40:53.016Z,45.40
2019-02-22T08:42:57.960Z,45.60
2019-02-22T08:45:03.098Z,45.40
2019-02-22T08:47:08.408Z,45.40
2019-02-22T08:49:13.209Z,45.30
2019-02-22T08:51:18.057Z,45.40
2019-02-22T08:53:23.100Z,45.00
2019-02-22T08:55:28.139Z,45.50
2019-02-22T08:57:33.099Z,45.00
2019-02-22T08:59:37.870Z,45.30
2019-02-22T09:01:42.821Z,45.40
2019-02-22T09:03:50.942Z,45.70
2019-02-22T09:05:54.119Z,45.60
2019-02-22T09:07:59.043Z,46.10
2019-02-22T09:10:04.920Z,44.60
2019-02-22T09:12:09.806Z,44.20
2019-02-22T09:14:14.760Z,44.30
2019-02-22T09:16:19.629Z,44.00
2019-02-22T09:18:27.724Z,43.80
2019-02-22T09:20:33.218Z,43.70
2019-02-22T09:22:39.259Z,43.80
2019-02-22T09:24:44.319Z,43.70
2019-02-22T09:26:49.136Z,43.60
2019-02-22T09:28:55.607Z,43.70
2019-02-22T09:31:00.470Z,43.70
2019-02-22T09:33:05.257Z,43.00
2019-02-22T09:35:10.543Z,41.80
